createdAt,value
2017-07-07T00:00:04.819Z,18.66
2017-07-07T00:01:15.112Z,18.74
2017-07-07T00:02:25.389Z,18.58
2017-07-07T00:03:35.906Z,18.61
2017-07-07T00:04:45.853Z,18.63
2017-07-07T00:05:56.131Z,18.58
2017-07-07T00:07:06.395Z,18.57
2017-07-07T00:08:15.720Z,18.58
2017-07-07T00:09:26.221Z,18.49
2017-07-07T00:10:35.858Z,18.46
2017-07-07T00:11:45.798Z,18.48
2017-07-07T00:12:56.128Z,18.51
2017-07-07T00:14:06.410Z,18.49
2017-07-07T00:15:16.935Z,18.39
2017-07-07T00:16:26.875Z,18.46
2017-07-07T00:17:37.133Z,18.34
2017-07-07T00:18:47.413Z,18.3
2017-07-07T00:19:57.697Z,18.39
2017-07-07T00:21:08.205Z,18.43
2017-07-07T00:22:18.665Z,18.45
2017-07-07T00:23:28.930Z,18.42
2017-07-07T00:24:39.183Z,18.37
2017-07-07T00:25:49.137Z,18.45
2017-07-07T00:26:59.644Z,18.46
2017-07-07T00:28:09.905Z,18.34
2017-07-07T00:29:19.851Z,18.34
2017-07-07T00:30:30.137Z,18.39
2017-07-07T00:31:40.418Z,18.43
2017-07-07T00:32:50.943Z,18.34
2017-07-07T00:34:01.236Z,18.34
2017-07-07T00:35:11.194Z,18.3
2017-07-07T00:36:21.474Z,18.37
2017-07-07T00:37:31.429Z,18.45
2017-07-07T00:38:42.024Z,18.37
2017-07-07T00:39:52.314Z,18.34
2017-07-07T00:41:02.646Z,18.41
2017-07-07T00:42:12.925Z,18.46
2017-07-07T00:43:23.198Z,18.34
2017-07-07T00:44:33.158Z,18.37
2017-07-07T00:45:43.423Z,18.34
2017-07-07T00:46:53.698Z,18.36
2017-07-07T00:48:03.978Z,18.36
2017-07-07T00:49:14.269Z,18.34
2017-07-07T00:50:24.821Z,18.37
2017-07-07T00:51:35.100Z,18.27
2017-07-07T00:52:45.054Z,18.3
2017-07-07T00:53:54.681Z,18.27
2017-07-07T00:55:04.628Z,18.26
2017-07-07T00:56:15.135Z,18.26
2017-07-07T00:57:25.400Z,18.26
2017-07-07T00:58:35.665Z,18.24
2017-07-07T00:59:45.921Z,18.28
2017-07-07T01:00:56.187Z,18.27
2017-07-07T01:02:06.720Z,18.26
2017-07-07T01:03:17.039Z,18.24
2017-07-07T01:04:27.321Z,18.21
2017-07-07T01:05:37.596Z,18.21
2017-07-07T01:06:47.882Z,18.21
2017-07-07T01:07:58.401Z,18.24
2017-07-07T01:09:08.677Z,18.26
2017-07-07T01:10:18.946Z,18.19
2017-07-07T01:11:28.903Z,18.27
2017-07-07T01:12:39.172Z,18.27
2017-07-07T01:13:49.407Z,18.13
2017-07-07T01:14:59.669Z,18.12
2017-07-07T01:16:09.924Z,18.18
2017-07-07T01:17:20.192Z,18.13
2017-07-07T01:18:30.135Z,18.12
2017-07-07T01:19:40.654Z,18.08
2017-07-07T01:20:50.925Z,18.06
2017-07-07T01:22:00.880Z,18
2017-07-07T01:23:11.030Z,17.98
2017-07-07T01:24:21.305Z,18.05
2017-07-07T01:25:31.863Z,17.94
2017-07-07T01:26:42.128Z,17.95
2017-07-07T01:27:51.770Z,17.94
2017-07-07T01:29:01.739Z,17.94
2017-07-07T01:30:11.079Z,17.94
2017-07-07T01:31:21.598Z,17.98
2017-07-07T01:32:31.869Z,17.93
2017-07-07T01:33:42.145Z,17.95
2017-07-07T01:34:52.411Z,17.95
2017-07-07T01:36:02.681Z,17.95
2017-07-07T01:37:13.196Z,17.95
2017-07-07T01:38:23.147Z,17.93
2017-07-07T01:39:33.410Z,17.97
2017-07-07T01:40:43.680Z,17.97
2017-07-07T01:41:53.933Z,17.97
2017-07-07T01:43:04.458Z,17.91
2017-07-07T01:44:14.733Z,17.93
2017-07-07T01:45:24.673Z,17.95
2017-07-07T01:46:34.937Z,17.91
2017-07-07T01:47:45.211Z,17.9
2017-07-07T01:48:55.414Z,17.94
2017-07-07T01:50:05.678Z,17.9
2017-07-07T01:51:15.942Z,17.93
2017-07-07T01:52:26.209Z,17.97
2017-07-07T01:53:36.167Z,18
2017-07-07T01:54:46.682Z,18
2017-07-07T01:55:56.632Z,17.98
2017-07-07T01:57:06.897Z,18
2017-07-07T01:58:16.841Z,17.97
2017-07-07T01:59:27.103Z,17.98
2017-07-07T02:00:37.636Z,18.03
2017-07-07T02:01:47.916Z,17.98
2017-07-07T02:02:58.189Z,17.94
2017-07-07T02:04:08.459Z,17.95
2017-07-07T02:05:18.722Z,17.93
2017-07-07T02:06:29.245Z,17.93
2017-07-07T02:07:39.498Z,17.94
2017-07-07T02:08:49.442Z,17.9
2017-07-07T02:09:59.725Z,17.94
2017-07-07T02:11:10.019Z,17.88
2017-07-07T02:12:20.540Z,17.9
2017-07-07T02:13:30.808Z,17.86
2017-07-07T02:14:41.081Z,17.88
2017-07-07T02:15:51.350Z,17.88
2017-07-07T02:17:01.608Z,17.87
2017-07-07T02:18:12.199Z,17.86
2017-07-07T02:19:22.477Z,17.86
2017-07-07T02:20:32.754Z,17.8
2017-07-07T02:21:43.017Z,17.84
2017-07-07T02:22:53.292Z,17.82
2017-07-07T02:24:03.543Z,17.8
2017-07-07T02:25:13.801Z,17.82
2017-07-07T02:26:24.089Z,17.79
2017-07-07T02:27:34.031Z,17.84
2017-07-07T02:28:44.296Z,17.9
2017-07-07T02:29:54.506Z,17.82
2017-07-07T02:31:04.782Z,17.78
2017-07-07T02:32:15.046Z,17.8
2017-07-07T02:33:25.312Z,17.79
2017-07-07T02:34:35.581Z,17.86
2017-07-07T02:35:46.096Z,17.84
2017-07-07T02:36:56.039Z,17.76
2017-07-07T02:38:06.305Z,17.86
2017-07-07T02:39:16.257Z,17.73
2017-07-07T02:40:26.221Z,17.76
2017-07-07T02:41:36.415Z,17.75
2017-07-07T02:42:46.690Z,17.76
2017-07-07T02:43:56.641Z,17.86
2017-07-07T02:45:06.902Z,17.88
2017-07-07T02:46:17.162Z,17.84
2017-07-07T02:47:27.684Z,17.87
2017-07-07T02:48:37.951Z,17.76
2017-07-07T02:49:48.199Z,17.87
2017-07-07T02:50:58.470Z,17.79
2017-07-07T02:52:08.773Z,17.75
2017-07-07T02:53:19.294Z,17.8
2017-07-07T02:54:29.559Z,17.8
2017-07-07T02:55:39.833Z,17.82
2017-07-07T02:56:50.111Z,17.76
2017-07-07T02:58:00.376Z,17.72
2017-07-07T02:59:10.569Z,17.75
2017-07-07T03:00:20.826Z,17.73
2017-07-07T03:01:31.097Z,17.73
2017-07-07T03:02:41.057Z,17.8
2017-07-07T03:03:51.011Z,17.76
2017-07-07T03:05:01.526Z,17.76
2017-07-07T03:06:11.804Z,17.75
2017-07-07T03:07:22.078Z,17.71
2017-07-07T03:08:32.047Z,17.72
2017-07-07T03:09:42.321Z,17.65
2017-07-07T03:10:52.847Z,17.63
2017-07-07T03:12:03.126Z,17.6
2017-07-07T03:13:12.760Z,17.65
2017-07-07T03:14:23.037Z,17.65
2017-07-07T03:15:33.292Z,17.78
2017-07-07T03:16:43.527Z,17.78
2017-07-07T03:17:53.810Z,17.69
2017-07-07T03:19:03.767Z,17.75
2017-07-07T03:20:14.043Z,17.76
2017-07-07T03:21:24.300Z,17.73
2017-07-07T03:22:34.500Z,17.75
2017-07-07T03:23:44.764Z,17.73
2017-07-07T03:24:55.027Z,17.73
2017-07-07T03:26:04.967Z,17.73
2017-07-07T03:27:15.301Z,17.71
2017-07-07T03:28:25.836Z,17.79
2017-07-07T03:29:36.105Z,17.73
2017-07-07T03:30:46.362Z,17.79
2017-07-07T03:31:56.656Z,17.75
2017-07-07T03:33:06.916Z,17.76
2017-07-07T03:34:16.789Z,17.76
2017-07-07T03:35:27.041Z,17.72
2017-07-07T03:36:37.320Z,17.72
2017-07-07T03:37:47.273Z,17.72
2017-07-07T03:38:57.230Z,17.76
2017-07-07T03:40:07.752Z,17.75
2017-07-07T03:41:18.013Z,17.76
2017-07-07T03:42:28.013Z,17.75
2017-07-07T03:43:37.971Z,17.76
2017-07-07T03:44:47.920Z,17.73
2017-07-07T03:45:58.429Z,17.73
2017-07-07T03:47:08.690Z,17.75
2017-07-07T03:48:18.949Z,17.75
2017-07-07T03:49:29.222Z,17.84
2017-07-07T03:50:39.493Z,17.69
2017-07-07T03:51:49.996Z,17.75
2017-07-07T03:53:00.268Z,17.78
2017-07-07T03:54:10.214Z,17.84
2017-07-07T03:55:20.471Z,17.87
2017-07-07T03:56:30.433Z,17.88
2017-07-07T03:57:40.935Z,17.9
2017-07-07T03:58:51.214Z,17.91
2017-07-07T04:00:01.189Z,17.94
2017-07-07T04:01:11.447Z,17.93
2017-07-07T04:02:21.711Z,17.97
2017-07-07T04:03:31.913Z,17.97
2017-07-07T04:04:42.188Z,17.94
2017-07-07T04:05:52.142Z,17.98
2017-07-07T04:07:02.095Z,18
2017-07-07T04:08:12.345Z,18
2017-07-07T04:09:22.869Z,17.97
2017-07-07T04:10:32.816Z,17.95
2017-07-07T04:11:43.093Z,18.02
2017-07-07T04:12:53.359Z,18.03
2017-07-07T04:14:03.630Z,18.12
2017-07-07T04:15:13.842Z,18.05
2017-07-07T04:16:23.474Z,18.09
2017-07-07T04:17:33.746Z,18.08
2017-07-07T04:18:44.018Z,18.16
2017-07-07T04:19:54.307Z,18.09
2017-07-07T04:21:04.813Z,18.12
2017-07-07T04:22:15.084Z,18.08
2017-07-07T04:23:25.338Z,18.12
2017-07-07T04:24:35.609Z,18.12
2017-07-07T04:25:45.880Z,18.24
2017-07-07T04:26:56.417Z,18.31
2017-07-07T04:28:06.886Z,18.26
2017-07-07T04:29:17.155Z,18.24
2017-07-07T04:30:27.104Z,18.26
2017-07-07T04:31:37.368Z,18.27
2017-07-07T04:32:47.885Z,18.24
2017-07-07T04:33:57.908Z,18.26
2017-07-07T04:35:08.180Z,18.27
2017-07-07T04:36:18.451Z,18.16
2017-07-07T04:37:28.715Z,18.23
2017-07-07T04:38:38.907Z,18.33
2017-07-07T04:39:49.165Z,18.23
2017-07-07T04:40:59.142Z,18.27
2017-07-07T04:42:09.426Z,18.24
2017-07-07T04:43:19.703Z,18.21
2017-07-07T04:44:30.216Z,18.27
2017-07-07T04:45:40.491Z,18.23
2017-07-07T04:46:50.765Z,18.09
2017-07-07T04:48:01.048Z,18.06
2017-07-07T04:49:11.336Z,18.15
2017-07-07T04:50:21.834Z,18.16
2017-07-07T04:51:31.782Z,18.09
2017-07-07T04:52:42.051Z,18.09
2017-07-07T04:53:52.355Z,18.08
2017-07-07T04:55:02.609Z,18.18
2017-07-07T04:56:13.139Z,18.11
2017-07-07T04:57:23.419Z,18.05
2017-07-07T04:58:33.678Z,18.08
2017-07-07T04:59:43.619Z,18.08
2017-07-07T05:00:53.886Z,18.08
2017-07-07T05:02:04.084Z,18.16
2017-07-07T05:03:14.362Z,18.13
2017-07-07T05:04:24.638Z,18.13
2017-07-07T05:05:34.916Z,18.06
2017-07-07T05:06:44.878Z,18.05
2017-07-07T05:07:55.405Z,18.02
2017-07-07T05:09:05.668Z,17.98
2017-07-07T05:10:15.929Z,18
2017-07-07T05:11:26.196Z,18
2017-07-07T05:12:36.479Z,17.98
2017-07-07T05:13:47.043Z,17.97
2017-07-07T05:14:57.317Z,17.98
2017-07-07T05:16:07.583Z,18.06
2017-07-07T05:17:17.853Z,18.05
2017-07-07T05:18:27.807Z,18.03
2017-07-07T05:19:38.393Z,18.03
2017-07-07T05:20:48.334Z,17.93
2017-07-07T05:21:58.591Z,17.86
2017-07-07T05:23:08.853Z,17.76
2017-07-07T05:24:18.797Z,17.66
2017-07-07T05:25:29.037Z,17.34
2017-07-07T05:26:39.305Z,17.17
2017-07-07T05:27:49.583Z,17.05
2017-07-07T05:28:59.224Z,16.91
2017-07-07T05:30:08.872Z,16.69
2017-07-07T05:31:19.383Z,16.65
2017-07-07T05:32:29.653Z,16.44
2017-07-07T05:33:39.932Z,16.46
2017-07-07T05:34:49.577Z,16.28
2017-07-07T05:35:59.854Z,16.21
2017-07-07T05:37:10.369Z,16.16
2017-07-07T05:38:20.617Z,16.1
2017-07-07T05:39:30.598Z,16.08
2017-07-07T05:40:40.878Z,16.09
2017-07-07T05:41:51.154Z,16.06
2017-07-07T05:43:01.360Z,16.12
2017-07-07T05:44:11.641Z,16.13
2017-07-07T05:45:21.598Z,16.06
2017-07-07T05:46:31.874Z,16.13
2017-07-07T05:47:42.141Z,16.17
2017-07-07T05:48:52.719Z,16.25
2017-07-07T05:50:03.004Z,16.22
2017-07-07T05:51:13.294Z,16.31
2017-07-07T05:52:23.584Z,16.22
2017-07-07T05:53:33.865Z,16.29
2017-07-07T05:54:44.547Z,16.26
2017-07-07T05:55:54.820Z,16.36
2017-07-07T05:57:05.116Z,16.36
2017-07-07T05:58:15.395Z,16.39
2017-07-07T05:59:25.017Z,16.43
2017-07-07T06:00:35.562Z,16.39
2017-07-07T06:01:45.601Z,16.41
2017-07-07T06:02:55.868Z,16.44
2017-07-07T06:04:05.823Z,16.49
2017-07-07T06:05:15.773Z,16.46
2017-07-07T06:06:26.343Z,16.46
2017-07-07T06:07:36.621Z,16.5
2017-07-07T06:08:46.874Z,16.54
2017-07-07T06:09:57.158Z,16.54
2017-07-07T06:11:07.433Z,16.54
2017-07-07T06:12:18.000Z,16.55
2017-07-07T06:13:28.277Z,16.5
2017-07-07T06:14:38.561Z,16.58
2017-07-07T06:15:48.531Z,16.59
2017-07-07T06:16:58.809Z,16.58
2017-07-07T06:18:09.377Z,16.68
2017-07-07T06:19:19.012Z,16.66
2017-07-07T06:20:28.954Z,16.68
2017-07-07T06:21:38.927Z,16.73
2017-07-07T06:22:49.237Z,16.79
2017-07-07T06:23:59.813Z,16.86
2017-07-07T06:25:09.787Z,16.86
2017-07-07T06:26:19.720Z,16.97
2017-07-07T06:27:29.988Z,17.04
2017-07-07T06:28:39.951Z,17.1
2017-07-07T06:29:50.147Z,17.07
2017-07-07T06:31:00.435Z,17.16
2017-07-07T06:32:10.079Z,17.2
2017-07-07T06:33:20.031Z,17.2
2017-07-07T06:34:29.986Z,17.34
2017-07-07T06:35:40.551Z,17.37
2017-07-07T06:36:50.821Z,17.34
2017-07-07T06:38:01.090Z,17.41
2017-07-07T06:39:11.663Z,17.49
2017-07-07T06:40:21.969Z,17.49
2017-07-07T06:41:32.549Z,17.49
2017-07-07T06:42:42.844Z,17.52
2017-07-07T06:43:52.806Z,17.46
2017-07-07T06:45:03.095Z,17.53
2017-07-07T06:46:13.404Z,17.54
2017-07-07T06:47:23.736Z,17.49
2017-07-07T06:48:34.018Z,17.52
2017-07-07T06:49:44.298Z,17.5
2017-07-07T06:50:54.574Z,17.53
2017-07-07T06:52:04.567Z,17.52
2017-07-07T06:53:15.173Z,17.47
2017-07-07T06:54:25.480Z,17.47
2017-07-07T06:55:35.775Z,17.35
2017-07-07T06:56:46.069Z,17.38
2017-07-07T06:57:56.032Z,17.38
2017-07-07T06:59:06.880Z,17.38
2017-07-07T07:00:17.176Z,17.39
2017-07-07T07:01:27.478Z,17.39
2017-07-07T07:02:37.438Z,17.32
2017-07-07T07:03:47.687Z,17.32
2017-07-07T07:04:57.623Z,17.38
2017-07-07T07:06:07.584Z,17.35
2017-07-07T07:07:17.864Z,17.35
2017-07-07T07:08:27.836Z,17.37
2017-07-07T07:09:38.116Z,17.39
2017-07-07T07:10:48.694Z,17.35
2017-07-07T07:11:58.664Z,17.34
2017-07-07T07:13:08.967Z,17.34
2017-07-07T07:14:19.236Z,17.31
2017-07-07T07:15:28.889Z,17.3
2017-07-07T07:16:39.473Z,17.23
2017-07-07T07:17:49.767Z,17.3
2017-07-07T07:18:59.718Z,17.27
2017-07-07T07:20:09.676Z,17.32
2017-07-07T07:21:19.654Z,17.22
2017-07-07T07:22:29.594Z,17.27
2017-07-07T07:23:39.854Z,17.12
2017-07-07T07:24:50.122Z,17.17
2017-07-07T07:26:00.388Z,17.19
2017-07-07T07:27:10.721Z,17.22
2017-07-07T07:28:21.317Z,17.14
2017-07-07T07:29:31.588Z,17.1
2017-07-07T07:30:41.539Z,17.07
2017-07-07T07:31:51.836Z,17.09
2017-07-07T07:33:02.119Z,17.07
2017-07-07T07:34:12.701Z,17.12
2017-07-07T07:35:22.986Z,17.07
2017-07-07T07:36:33.342Z,17.12
2017-07-07T07:37:43.630Z,17.09
2017-07-07T07:38:53.899Z,17.1
2017-07-07T07:40:04.419Z,17.04
2017-07-07T07:41:14.412Z,17.12
2017-07-07T07:42:24.671Z,17.09
2017-07-07T07:43:34.636Z,17.12
2017-07-07T07:44:44.922Z,17.16
2017-07-07T07:45:55.132Z,17.04
2017-07-07T07:47:05.399Z,17.19
2017-07-07T07:48:15.752Z,17.09
2017-07-07T07:49:26.014Z,17.16
2017-07-07T07:50:36.289Z,17.16
2017-07-07T07:51:46.812Z,17.19
2017-07-07T07:52:57.088Z,17.13
2017-07-07T07:54:07.377Z,17.14
2017-07-07T07:55:17.704Z,17.17
2017-07-07T07:56:27.699Z,17.24
2017-07-07T07:57:38.254Z,17.27
2017-07-07T07:58:48.213Z,17.27
2017-07-07T07:59:58.490Z,17.23
2017-07-07T08:01:08.450Z,17.35
2017-07-07T08:02:18.723Z,17.3
2017-07-07T08:03:29.283Z,17.28
2017-07-07T08:04:39.250Z,17.32
2017-07-07T08:05:49.515Z,17.37
2017-07-07T08:06:59.458Z,17.52
2017-07-07T08:08:09.751Z,17.49
2017-07-07T08:09:20.014Z,17.49
2017-07-07T08:10:29.981Z,17.5
2017-07-07T08:11:40.264Z,17.47
2017-07-07T08:12:49.944Z,17.5
2017-07-07T08:14:00.223Z,17.46
2017-07-07T08:15:10.493Z,17.42
2017-07-07T08:16:20.775Z,17.52
2017-07-07T08:17:31.025Z,17.53
2017-07-07T08:18:40.683Z,17.5
2017-07-07T08:19:50.647Z,17.5
2017-07-07T08:21:00.854Z,17.53
2017-07-07T08:22:11.135Z,17.5
2017-07-07T08:23:21.399Z,17.56
2017-07-07T08:24:31.036Z,17.53
2017-07-07T08:25:40.992Z,17.68
2017-07-07T08:26:51.578Z,17.71
2017-07-07T08:28:01.845Z,17.63
2017-07-07T08:29:12.151Z,17.68
2017-07-07T08:30:22.094Z,17.57
2017-07-07T08:31:32.393Z,17.69
2017-07-07T08:32:42.977Z,17.68
2017-07-07T08:33:53.282Z,17.71
2017-07-07T08:35:03.572Z,17.66
2017-07-07T08:36:13.833Z,17.69
2017-07-07T08:37:23.503Z,17.66
2017-07-07T08:38:34.027Z,17.68
2017-07-07T08:39:43.999Z,17.66
2017-07-07T08:40:54.279Z,17.66
2017-07-07T08:42:04.235Z,17.72
2017-07-07T08:43:14.526Z,17.79
2017-07-07T08:44:25.048Z,17.86
2017-07-07T08:45:34.995Z,17.84
2017-07-07T08:46:45.307Z,17.8
2017-07-07T08:47:55.285Z,17.9
2017-07-07T08:49:05.567Z,17.86
2017-07-07T08:50:15.827Z,17.8
2017-07-07T08:51:26.093Z,17.79
2017-07-07T08:52:36.052Z,17.8
2017-07-07T08:53:46.318Z,17.87
2017-07-07T08:54:56.597Z,17.84
2017-07-07T08:56:07.200Z,17.84
2017-07-07T08:57:17.481Z,17.9
2017-07-07T08:58:27.767Z,17.82
2017-07-07T08:59:37.737Z,17.76
2017-07-07T09:00:47.697Z,17.76
2017-07-07T09:01:58.280Z,17.65
2017-07-07T09:03:08.554Z,17.71
2017-07-07T09:04:18.545Z,17.57
2017-07-07T09:05:28.811Z,17.65
2017-07-07T09:06:38.771Z,17.54
2017-07-07T09:07:49.348Z,17.52
2017-07-07T09:08:59.623Z,17.47
2017-07-07T09:10:09.923Z,17.52
2017-07-07T09:11:20.166Z,17.54
2017-07-07T09:12:30.431Z,17.52
2017-07-07T09:13:41.037Z,17.53
2017-07-07T09:14:51.329Z,17.49
2017-07-07T09:16:01.602Z,17.56
2017-07-07T09:17:11.572Z,17.53
2017-07-07T09:18:21.856Z,17.49
2017-07-07T09:19:32.379Z,17.52
2017-07-07T09:20:42.351Z,17.5
2017-07-07T09:21:52.640Z,17.49
2017-07-07T09:23:02.913Z,17.5
2017-07-07T09:24:13.403Z,17.5
2017-07-07T09:25:23.986Z,17.57
2017-07-07T09:26:34.249Z,17.5
2017-07-07T09:27:44.224Z,17.53
2017-07-07T09:28:54.489Z,17.5
2017-07-07T09:30:04.765Z,17.54
2017-07-07T09:31:14.989Z,17.57
2017-07-07T09:32:25.247Z,17.65
2017-07-07T09:33:35.200Z,17.65
2017-07-07T09:34:45.474Z,17.57
2017-07-07T09:35:55.455Z,17.68
2017-07-07T09:37:05.975Z,17.79
2017-07-07T09:38:15.609Z,17.73
2017-07-07T09:39:25.567Z,17.9
2017-07-07T09:40:35.530Z,17.86
2017-07-07T09:41:45.492Z,17.93
2017-07-07T09:42:56.080Z,17.98
2017-07-07T09:44:06.608Z,18.03
2017-07-07T09:45:16.282Z,18.13
2017-07-07T09:46:26.563Z,18.18
2017-07-07T09:47:36.843Z,18.21
2017-07-07T09:48:47.385Z,18.23
2017-07-07T09:49:57.669Z,18.21
2017-07-07T09:51:07.959Z,18.16
2017-07-07T09:52:18.255Z,18.19
2017-07-07T09:53:28.594Z,18.24
2017-07-07T09:54:39.119Z,18.28
2017-07-07T09:55:49.394Z,18.34
2017-07-07T09:56:59.689Z,18.37
2017-07-07T09:58:09.318Z,18.53
2017-07-07T09:59:19.595Z,18.63
2017-07-07T10:00:30.132Z,18.73
2017-07-07T10:01:40.102Z,18.81
2017-07-07T10:02:50.070Z,18.88
2017-07-07T10:04:00.346Z,19.05
2017-07-07T10:05:10.613Z,19.17
2017-07-07T10:06:20.874Z,19.38
2017-07-07T10:07:31.146Z,19.39
2017-07-07T10:08:41.418Z,19.47
2017-07-07T10:09:51.717Z,19.64
2017-07-07T10:11:02.008Z,19.82
2017-07-07T10:12:12.546Z,19.82
2017-07-07T10:13:22.509Z,19.84
2017-07-07T10:14:32.838Z,19.82
2017-07-07T10:15:42.507Z,19.78
2017-07-07T10:16:52.788Z,19.79
2017-07-07T10:18:03.319Z,19.92
2017-07-07T10:19:13.584Z,19.99
2017-07-07T10:20:23.541Z,19.97
2017-07-07T10:21:33.821Z,20.14
2017-07-07T10:22:44.111Z,20.12
2017-07-07T10:23:54.695Z,20.17
2017-07-07T10:25:05.003Z,20.29
2017-07-07T10:26:15.279Z,20.52
2017-07-07T10:27:25.562Z,20.9
2017-07-07T10:28:35.833Z,21.13
2017-07-07T10:29:46.354Z,21.35
2017-07-07T10:30:56.622Z,21.69
2017-07-07T10:32:06.589Z,22.06
2017-07-07T10:33:16.557Z,22.21
2017-07-07T10:34:27.116Z,22.41
2017-07-07T10:35:37.383Z,22.7
2017-07-07T10:36:47.674Z,23.06
2017-07-07T10:37:57.969Z,23.48
2017-07-07T10:39:08.269Z,23.54
2017-07-07T10:40:18.557Z,23.94
2017-07-07T10:41:29.148Z,24.21
2017-07-07T10:42:39.468Z,24.56
2017-07-07T10:43:49.442Z,24.62
2017-07-07T10:44:59.736Z,24.93
2017-07-07T10:46:10.023Z,25.26
2017-07-07T10:47:20.548Z,25.63
2017-07-07T10:48:30.828Z,25.8
2017-07-07T10:49:41.106Z,25.86
2017-07-07T10:50:51.397Z,25.96
2017-07-07T10:52:01.680Z,26.15
2017-07-07T10:53:12.256Z,25.95
2017-07-07T10:54:22.216Z,25.66
2017-07-07T10:55:32.569Z,25.49
2017-07-07T10:56:42.532Z,25.58
2017-07-07T10:57:52.551Z,25.76
2017-07-07T10:59:03.086Z,26.1
2017-07-07T11:00:13.099Z,26.31
2017-07-07T11:01:23.081Z,26.63
2017-07-07T11:02:32.746Z,26.56
2017-07-07T11:03:43.034Z,26.66
2017-07-07T11:04:53.601Z,26.45
2017-07-07T11:06:03.884Z,26.18
2017-07-07T11:07:14.169Z,26.07
2017-07-07T11:08:24.148Z,25.91
2017-07-07T11:09:34.453Z,25.73
2017-07-07T11:10:44.975Z,25.44
2017-07-07T11:11:54.942Z,25.37
2017-07-07T11:13:05.234Z,25.51
2017-07-07T11:14:15.502Z,25.76
2017-07-07T11:15:25.465Z,26.11
2017-07-07T11:16:35.699Z,26.56
2017-07-07T11:17:45.976Z,26.76
2017-07-07T11:18:55.943Z,27.01
2017-07-07T11:20:05.925Z,27.1
2017-07-07T11:21:16.204Z,27.43
2017-07-07T11:22:26.479Z,27.78
2017-07-07T11:23:36.789Z,27.98
2017-07-07T11:24:47.072Z,27.48
2017-07-07T11:25:57.399Z,27.58
2017-07-07T11:27:07.694Z,27.44
2017-07-07T11:28:17.919Z,27.29
2017-07-07T11:29:27.890Z,27.47
2017-07-07T11:30:37.871Z,28.03
2017-07-07T11:31:47.867Z,28.28
2017-07-07T11:32:58.173Z,28.68
2017-07-07T11:34:08.714Z,29.05
2017-07-07T11:35:19.015Z,29.13
2017-07-07T11:36:29.310Z,28.92
2017-07-07T11:37:39.607Z,28.65
2017-07-07T11:38:49.935Z,28.25
2017-07-07T11:40:00.519Z,28.2
2017-07-07T11:41:10.493Z,28.13
2017-07-07T11:42:20.780Z,28.04
2017-07-07T11:43:31.289Z,28.08
2017-07-07T11:44:41.255Z,28.2
2017-07-07T11:45:51.873Z,28.53
2017-07-07T11:47:02.178Z,28.53
2017-07-07T11:48:12.479Z,28.72
2017-07-07T11:49:22.771Z,29.05
2017-07-07T11:50:33.076Z,29.27
2017-07-07T11:51:43.672Z,29.18
2017-07-07T11:52:53.316Z,29.35
2017-07-07T11:54:03.628Z,29.43
2017-07-07T11:55:13.587Z,29.53
2017-07-07T11:56:23.574Z,29.47
2017-07-07T11:57:33.853Z,29.42
2017-07-07T11:58:44.143Z,29.55
2017-07-07T11:59:54.125Z,30.08
2017-07-07T12:01:04.430Z,30.14
2017-07-07T12:02:14.792Z,30.05
2017-07-07T12:03:25.065Z,30.02
2017-07-07T12:04:35.066Z,30.21
2017-07-07T12:05:45.364Z,30.18
2017-07-07T12:06:55.629Z,30.2
2017-07-07T12:08:05.944Z,30.27
2017-07-07T12:09:16.556Z,30.29
2017-07-07T12:10:26.848Z,30.13
2017-07-07T12:11:36.800Z,30.27
2017-07-07T12:12:46.459Z,30.48
2017-07-07T12:13:56.771Z,30.56
2017-07-07T12:15:07.059Z,30.99
2017-07-07T12:16:17.358Z,30.95
2017-07-07T12:17:27.653Z,30.92
2017-07-07T12:18:37.642Z,31.04
2017-07-07T12:19:47.954Z,31.23
2017-07-07T12:20:58.491Z,31.32
2017-07-07T12:22:08.800Z,31.11
2017-07-07T12:23:19.186Z,30.78
2017-07-07T12:24:29.149Z,30.91
2017-07-07T12:25:39.423Z,31
2017-07-07T12:26:49.717Z,31.11
2017-07-07T12:28:00.023Z,31.3
2017-07-07T12:29:10.301Z,31.44
2017-07-07T12:30:20.597Z,31.62
2017-07-07T12:31:30.581Z,31.29
2017-07-07T12:32:41.115Z,31.08
2017-07-07T12:33:51.079Z,31
2017-07-07T12:35:01.368Z,30.56
2017-07-07T12:36:11.660Z,30.27
2017-07-07T12:37:21.947Z,30.14
2017-07-07T12:38:32.205Z,30.2
2017-07-07T12:39:42.514Z,30.13
2017-07-07T12:40:52.508Z,29.92
2017-07-07T12:42:02.785Z,29.8
2017-07-07T12:43:13.061Z,29.9
2017-07-07T12:44:23.268Z,29.87
2017-07-07T12:45:33.552Z,29.94
2017-07-07T12:46:43.519Z,30.17
2017-07-07T12:47:53.802Z,30.38
2017-07-07T12:49:04.097Z,30.58
2017-07-07T12:50:14.677Z,30.54
2017-07-07T12:51:24.977Z,30.65
2017-07-07T12:52:35.261Z,30.62
2017-07-07T12:53:45.233Z,30.83
2017-07-07T12:54:55.193Z,31.02
2017-07-07T12:56:05.729Z,31.2
2017-07-07T12:57:16.021Z,31.33
2017-07-07T12:58:25.988Z,31.45
2017-07-07T12:59:35.945Z,31.77
2017-07-07T13:00:46.227Z,31.98
2017-07-07T13:01:56.506Z,31.78
2017-07-07T13:03:06.800Z,31.64
2017-07-07T13:04:17.082Z,31.51
2017-07-07T13:05:27.429Z,31.39
2017-07-07T13:06:37.722Z,31.35
2017-07-07T13:07:48.328Z,30.98
2017-07-07T13:08:58.617Z,30.49
2017-07-07T13:10:08.915Z,29.96
2017-07-07T13:11:19.202Z,29.69
2017-07-07T13:12:29.484Z,29.84
2017-07-07T13:13:40.090Z,30.17
2017-07-07T13:14:50.389Z,30.24
2017-07-07T13:16:00.662Z,30.65
2017-07-07T13:17:10.948Z,30.8
2017-07-07T13:18:21.223Z,30.48
2017-07-07T13:19:31.750Z,30.51
2017-07-07T13:20:42.042Z,30.56
2017-07-07T13:21:52.338Z,30.78
2017-07-07T13:23:01.986Z,31.14
2017-07-07T13:24:12.255Z,31.44
2017-07-07T13:25:22.532Z,31.66
2017-07-07T13:26:32.512Z,32.2
2017-07-07T13:27:42.484Z,32.66
2017-07-07T13:28:52.457Z,32.98
2017-07-07T13:30:02.425Z,32.95
2017-07-07T13:31:13.006Z,33.03
2017-07-07T13:32:22.975Z,33.12
2017-07-07T13:33:32.628Z,32.95
2017-07-07T13:34:42.905Z,32.9
2017-07-07T13:35:52.576Z,33.04
2017-07-07T13:37:03.094Z,33.47
2017-07-07T13:38:13.388Z,33.67
2017-07-07T13:39:23.704Z,33.22
2017-07-07T13:40:34.030Z,32.95
2017-07-07T13:41:44.048Z,32.73
2017-07-07T13:42:54.334Z,32.53
2017-07-07T13:44:04.617Z,32.71
2017-07-07T13:45:14.584Z,32.66
2017-07-07T13:46:24.869Z,32.81
2017-07-07T13:47:34.912Z,32.6
2017-07-07T13:48:45.490Z,32.53
2017-07-07T13:49:55.774Z,32.19
2017-07-07T13:51:05.737Z,32.01
2017-07-07T13:52:16.026Z,31.51
2017-07-07T13:53:26.347Z,31.66
2017-07-07T13:54:36.588Z,31.74
2017-07-07T13:55:46.874Z,31.85
2017-07-07T13:56:57.171Z,31.67
2017-07-07T13:58:07.458Z,31.86
2017-07-07T13:59:17.755Z,32.09
2017-07-07T14:00:27.960Z,32
2017-07-07T14:01:37.959Z,31.89
2017-07-07T14:02:48.253Z,31.54
2017-07-07T14:03:58.535Z,31.35
2017-07-07T14:05:08.820Z,31.62
2017-07-07T14:06:19.078Z,32.09
2017-07-07T14:07:29.057Z,32.38
2017-07-07T14:08:39.395Z,32.19
2017-07-07T14:09:49.345Z,32.05
2017-07-07T14:10:59.315Z,32.24
2017-07-07T14:12:09.232Z,32.44
2017-07-07T14:13:19.520Z,32.56
2017-07-07T14:14:29.503Z,32.24
2017-07-07T14:15:39.793Z,31.81
2017-07-07T14:16:49.773Z,31.5
2017-07-07T14:18:00.383Z,31.51
2017-07-07T14:19:10.736Z,31.57
2017-07-07T14:20:20.719Z,31.67
2017-07-07T14:21:30.991Z,31.63
2017-07-07T14:22:41.264Z,31.74
2017-07-07T14:23:51.158Z,31.6
2017-07-07T14:25:01.425Z,31.5
2017-07-07T14:26:11.714Z,31.23
2017-07-07T14:27:21.685Z,31.13
2017-07-07T14:28:31.962Z,31.26
2017-07-07T14:29:42.510Z,31.36
2017-07-07T14:30:52.490Z,31.39
2017-07-07T14:32:02.442Z,31.47
2017-07-07T14:33:12.716Z,31.73
2017-07-07T14:34:23.056Z,31.73
2017-07-07T14:35:33.624Z,31.78
2017-07-07T14:36:43.914Z,32
2017-07-07T14:37:54.221Z,32.07
2017-07-07T14:39:04.503Z,32.11
2017-07-07T14:40:14.789Z,32
2017-07-07T14:41:25.385Z,31.95
2017-07-07T14:42:35.401Z,31.97
2017-07-07T14:43:45.362Z,32.39
2017-07-07T14:44:55.667Z,32.64
2017-07-07T14:46:05.953Z,32.88
2017-07-07T14:47:16.492Z,32.73
2017-07-07T14:48:26.778Z,32.93
2017-07-07T14:49:36.754Z,33.39
2017-07-07T14:50:47.042Z,33.81
2017-07-07T14:51:57.333Z,34.31
2017-07-07T14:53:07.877Z,34.73
2017-07-07T14:54:18.155Z,34.79
2017-07-07T14:55:28.120Z,34.62
2017-07-07T14:56:38.131Z,34.59
2017-07-07T14:57:48.437Z,34.14
2017-07-07T14:58:58.701Z,33.91
2017-07-07T15:00:08.665Z,33.82
2017-07-07T15:01:18.981Z,33.54
2017-07-07T15:02:29.267Z,33.55
2017-07-07T15:03:39.580Z,33.76
2017-07-07T15:04:50.163Z,33.84
2017-07-07T15:06:00.454Z,33.98
2017-07-07T15:07:10.402Z,33.48
2017-07-07T15:08:20.710Z,33.39